createdAt,value
2023-04-15T00:05:06.822Z,72.7
2023-04-15T00:15:07.480Z,73.9
2023-04-15T00:25:05.880Z,74.5
2023-04-15T00:35:06.106Z,74.8
2023-04-15T00:45:05.910Z,75.5
2023-04-15T00:55:05.990Z,76.0
2023-04-15T01:05:06.013Z,76.6
2023-04-15T01:15:06.093Z,76.7
2023-04-15T01:25:05.879Z,77.0
2023-04-15T01:35:06.052Z,77.6
2023-04-15T01:45:06.156Z,77.4
2023-04-15T01:55:06.109Z,78.4
2023-04-15T02:05:06.658Z,79.7
2023-04-15T02:15:05.915Z,80.5
2023-04-15T02:25:05.911Z,81.1
2023-04-15T02:35:06.395Z,80.5
2023-04-15T02:45:05.910Z,81.1
2023-04-15T02:55:06.419Z,81.6
2023-04-15T03:05:06.002Z,82.5
2023-04-15T03:15:06.241Z,82.9
2023-04-15T03:25:06.060Z,83.7
2023-04-15T03:35:05.943Z,84.2
2023-04-15T03:45:05.977Z,84.9
2023-04-15T03:55:05.877Z,85.0
2023-04-15T04:05:06.063Z,85.9
2023-04-15T04:15:05.919Z,86.5
2023-04-15T04:25:05.955Z,86.9
2023-04-15T04:35:05.984Z,86.9
2023-04-15T04:45:05.860Z,87.5
2023-04-15T04:55:06.088Z,88.0
2023-04-15T05:05:06.240Z,88.3
2023-04-15T05:15:05.858Z,88.3
2023-04-15T05:25:06.260Z,88.1
2023-04-15T05:35:05.897Z,87.6
2023-04-15T05:45:05.973Z,87.1
2023-04-15T05:55:06.371Z,86.4
2023-04-15T06:05:06.200Z,86.2
2023-04-15T06:15:05.937Z,85.7
2023-04-15T06:25:05.969Z,85.4
2023-04-15T06:35:06.374Z,84.9
2023-04-15T06:45:06.276Z,84.5
2023-04-15T06:55:06.083Z,83.9
2023-04-15T07:05:05.959Z,83.6
2023-04-15T07:15:06.243Z,82.1
2023-04-15T07:25:06.166Z,80.3
2023-04-15T07:35:07.173Z,79.5
2023-04-15T07:45:06.088Z,78.7
2023-04-15T07:55:06.609Z,77.2
2023-04-15T08:05:06.174Z,77.9
2023-04-15T08:15:06.165Z,76.4
2023-04-15T08:25:05.945Z,76.3
2023-04-15T08:35:06.097Z,77.4
2023-04-15T08:45:06.117Z,77.4
2023-04-15T08:55:06.036Z,77.3
2023-04-15T09:05:06.289Z,75.4
2023-04-15T09:15:05.999Z,74.7
2023-04-15T09:25:06.057Z,74.0
2023-04-15T09:35:05.958Z,72.9
2023-04-15T09:45:06.233Z,72.0
2023-04-15T09:55:06.085Z,71.6
2023-04-15T10:05:05.945Z,69.6
2023-04-15T10:15:06.071Z,69.6
2023-04-15T10:25:06.323Z,69.8
2023-04-15T10:35:06.182Z,69.1
2023-04-15T10:45:06.030Z,69.7
2023-04-15T10:55:06.038Z,68.0
2023-04-15T11:05:06.048Z,68.5
2023-04-15T11:15:06.137Z,69.2
2023-04-15T11:25:06.200Z,70.2
2023-04-15T11:35:06.661Z,70.3
2023-04-15T11:45:05.988Z,69.0
2023-04-15T11:55:06.022Z,70.6
2023-04-15T12:05:06.092Z,71.0
2023-04-15T12:15:06.488Z,69.7
2023-04-15T12:25:06.702Z,70.1
2023-04-15T12:35:06.220Z,69.8
2023-04-15T12:45:06.158Z,69.9
2023-04-15T12:55:06.153Z,69.8
2023-04-15T13:05:06.111Z,70.6
2023-04-15T13:15:06.058Z,71.1
2023-04-15T13:25:06.100Z,71.9
2023-04-15T13:35:06.432Z,72.2
2023-04-15T13:45:06.435Z,73.2
2023-04-15T13:55:07.715Z,73.0
2023-04-15T14:05:06.196Z,73.7
2023-04-15T14:15:06.014Z,74.6
2023-04-15T14:25:06.148Z,75.3
2023-04-15T14:35:06.160Z,74.9
2023-04-15T14:45:06.385Z,73.9
2023-04-15T14:55:06.093Z,73.5
2023-04-15T15:05:06.324Z,74.9
2023-04-15T15:15:15.475Z,76.3
2023-04-15T15:25:06.156Z,76.2
2023-04-15T15:35:06.331Z,76.5
2023-04-15T15:45:06.050Z,77.6
2023-04-15T15:55:06.169Z,77.9
2023-04-15T16:05:06.657Z,78.5
2023-04-15T16:15:06.055Z,78.9
2023-04-15T16:25:06.973Z,79.4
2023-04-15T16:35:06.135Z,79.8
2023-04-15T16:45:06.122Z,80.3
2023-04-15T16:55:06.105Z,80.9
2023-04-15T17:05:06.327Z,81.4
2023-04-15T17:15:06.369Z,82.3
2023-04-15T17:25:06.085Z,83.4
2023-04-15T17:35:06.464Z,84.6
2023-04-15T17:45:06.083Z,84.3
2023-04-15T17:55:06.274Z,83.6
2023-04-15T18:05:06.355Z,83.3
2023-04-15T18:15:06.207Z,83.3
2023-04-15T18:25:06.518Z,83.8
2023-04-15T18:35:06.235Z,87.9
2023-04-15T18:45:06.439Z,90.2
2023-04-15T18:55:07.077Z,89.9
2023-04-15T19:05:06.052Z,90.7
2023-04-15T19:15:06.191Z,90.7
2023-04-15T19:25:06.258Z,91.6
2023-04-15T19:35:06.099Z,91.9
2023-04-15T19:45:06.323Z,91.7
2023-04-15T19:55:07.050Z,91.4
2023-04-15T20:05:06.289Z,91.3
2023-04-15T20:15:06.418Z,91.2
2023-04-15T20:25:06.476Z,91.1
2023-04-15T20:35:06.203Z,90.9
2023-04-15T20:45:06.237Z,91.0
2023-04-15T20:55:06.296Z,90.8
2023-04-15T21:05:06.374Z,90.9
2023-04-15T21:15:06.441Z,90.7
2023-04-15T21:25:06.130Z,90.8
2023-04-15T21:35:06.139Z,91.1
2023-04-15T21:45:06.200Z,91.1
2023-04-15T21:55:06.306Z,91.1
2023-04-15T22:05:06.539Z,91.3
2023-04-15T22:15:06.299Z,91.7
2023-04-15T22:25:06.882Z,92.1
2023-04-15T22:35:06.291Z,92.4
2023-04-15T22:45:06.254Z,92.8
2023-04-15T22:55:06.110Z,93.2
2023-04-15T23:05:12.476Z,93.6
2023-04-15T23:15:09.518Z,93.9
2023-04-15T23:25:08.488Z,94.1
2023-04-15T23:35:11.034Z,94.2
2023-04-15T23:45:07.878Z,94.5
2023-04-15T23:55:10.777Z,94.8
